Airfield :
LOGIN :

Register | Disclaimer

   EN    FR    IT 

 










Legend :    VFR   Marginal VFR   IFR   Intensive IFR   Very Intensive IFR
Visi :
Ceiling :
>= 8 km
>= 3000ft
5 to 8 km
1000 to 3000 ft
1500m to 5 km
500 to 1000 ft
800 to 1500m
200 to 500 ft
< 800m
< 200 ft
Symbols :   Thunderstorms  Fog  Heavy snow  Heavy precipitations  Wind > 20 kt
SIGMETs :     Misc.  Thunderstorms  Icing  Turbulence  Mountain Waves  Volcanic Ashes






- Airport Elevation : 1090 ft
- IATA code : CFE


LFLC - Clermont-Ferrand Auvergne

CURRENT METAR :
  • 252230Z AUTO 29010KT CAVOK 10/04 Q1013 TEMPO 29015G25KT 4000 SHRA FEW010 BKN040TCU

EXPIRED METARs :
  • 252200Z AUTO 29011KT 260V320 CAVOK 10/04 Q1013 TEMPO 29015G25KT 4000 SHRA FEW010 BKN040TCU
  • 252130Z AUTO 29011KT 270V330 9999 FEW060 10/04 Q1013 TEMPO 29015G25KT 4000 SHRA FEW010 BKN040TCU
  • 252100Z AUTO 29010KT 260V340 9999 FEW060 10/04 Q1013 TEMPO 29015G25KT 4000 SHRA FEW010 BKN040TCU
  • 252030Z AUTO 29009KT 250V320 CAVOK 10/04 Q1012 TEMPO 29015G25KT 4000 SHRA FEW010 BKN040TCU
  • 252000Z AUTO 30007KT 270V360 9999 FEW039 SCT056 BKN068 09/04 Q1012 TEMPO 28020G30KT 4000 SHRA BKN040TCU

TAF TAF LFLC
Valid from the 25 at 21:00 until the 26 at 21:00 UTC


252000Z 2521/2621 29010KT 9999 FEW040 SCT060
PROB40
TEMPO 2521/2601 29015G25KT 4000 SHRA FEW010 BKN040TCU
TEMPO 2605/2610 2000 SHRA SCT010 SCT030TCU
TEMPO 2612/2616 4000 SHRA SCT045TCU
PROB30
TEMPO 2612/2616 31020G30KT 2000 TSRA SCT040CB
BECMG 2616/2618 VRB02KT
ATIS : +33 4 73 62 74 38



MET'MAP, your aeronautical weather chart ! - Copyright ORBIFLY December 2007 - Disclaimer

ORBIFLY MET'MAP TEAM :

Programming & Development : Alexandra Zaïnal
Concept & original design : Baudouin d'Aumeries
Assistance for programming : Marc-Olivier Méhu
Technical & hardware support : Manuel Goepfert

Contact : metmap@orbifly.com




SOURCES & CREDITS :

   NOAA